createdAt,value
2017-07-04T00:00:00.782Z,0
2017-07-04T00:00:21.062Z,0
2017-07-04T00:00:43.099Z,0
2017-07-04T00:01:04.097Z,0
2017-07-04T00:01:24.424Z,0
2017-07-04T00:01:45.611Z,0
2017-07-04T00:02:06.595Z,0
2017-07-04T00:02:27.604Z,0
2017-07-04T00:02:47.932Z,0
2017-07-04T00:03:08.326Z,0
2017-07-04T00:03:29.565Z,0
2017-07-04T00:03:49.602Z,0
2017-07-04T00:04:09.969Z,0
2017-07-04T00:04:30.231Z,0
2017-07-04T00:04:50.523Z,0
2017-07-04T00:05:10.792Z,0
2017-07-04T00:05:31.057Z,0
2017-07-04T00:05:52.632Z,0
2017-07-04T00:06:14.084Z,0
2017-07-04T00:06:35.082Z,0
2017-07-04T00:06:56.133Z,0
2017-07-04T00:07:17.599Z,0
2017-07-04T00:07:37.900Z,0
2017-07-04T00:07:58.217Z,0
2017-07-04T00:08:18.510Z,0
2017-07-04T00:08:38.781Z,0
2017-07-04T00:08:59.142Z,0
2017-07-04T00:09:19.456Z,0
2017-07-04T00:09:39.720Z,0
2017-07-04T00:10:00.029Z,0
2017-07-04T00:10:20.405Z,0
2017-07-04T00:10:40.713Z,0
2017-07-04T00:11:01.020Z,0
2017-07-04T00:11:22.076Z,0
2017-07-04T00:11:42.392Z,0
2017-07-04T00:12:02.728Z,0
2017-07-04T00:12:23.606Z,0
2017-07-04T00:12:43.992Z,0
2017-07-04T00:13:04.040Z,0
2017-07-04T00:13:25.091Z,0
2017-07-04T00:13:45.354Z,0
2017-07-04T00:14:05.663Z,0
2017-07-04T00:14:25.973Z,0
2017-07-04T00:14:47.107Z,0
2017-07-04T00:15:08.039Z,0
2017-07-04T00:15:28.314Z,0
2017-07-04T00:15:48.589Z,0
2017-07-04T00:16:08.890Z,0
2017-07-04T00:16:29.979Z,0
2017-07-04T00:16:51.109Z,0
2017-07-04T00:17:12.093Z,0
2017-07-04T00:17:32.462Z,0
2017-07-04T00:17:54.107Z,0
2017-07-04T00:18:14.368Z,0
2017-07-04T00:18:34.642Z,0
2017-07-04T00:18:54.947Z,0
2017-07-04T00:19:15.346Z,0
2017-07-04T00:19:35.649Z,0
2017-07-04T00:19:55.955Z,0
2017-07-04T00:20:17.613Z,0
2017-07-04T00:20:37.999Z,0
2017-07-04T00:20:58.342Z,0
2017-07-04T00:21:19.499Z,0
2017-07-04T00:21:39.789Z,0
2017-07-04T00:22:01.105Z,0
2017-07-04T00:22:22.112Z,0
2017-07-04T00:22:42.430Z,0
2017-07-04T00:23:03.623Z,0
2017-07-04T00:23:23.854Z,0
2017-07-04T00:23:58.724Z,0
2017-07-04T00:24:19.043Z,0
2017-07-04T00:24:39.346Z,0
2017-07-04T00:24:59.668Z,0
2017-07-04T00:25:21.103Z,0
2017-07-04T00:25:42.081Z,0
2017-07-04T00:26:03.647Z,0
2017-07-04T00:26:24.641Z,0
2017-07-04T00:26:45.000Z,0
2017-07-04T00:27:05.440Z,0
2017-07-04T00:27:26.596Z,0
2017-07-04T00:27:46.909Z,0
2017-07-04T00:28:08.076Z,0
2017-07-04T00:28:29.046Z,0
2017-07-04T00:28:50.062Z,0
2017-07-04T00:29:10.132Z,0
2017-07-04T00:29:30.440Z,0
2017-07-04T00:29:50.753Z,0
2017-07-04T00:30:11.030Z,0
2017-07-04T00:30:32.067Z,0
2017-07-04T00:30:53.108Z,0
2017-07-04T00:31:13.423Z,0
2017-07-04T00:31:33.740Z,0
2017-07-04T00:31:54.036Z,0
2017-07-04T00:32:14.303Z,0
2017-07-04T00:32:34.611Z,0
2017-07-04T00:32:54.934Z,0
2017-07-04T00:33:15.247Z,0
2017-07-04T00:33:35.510Z,0
2017-07-04T00:33:56.462Z,0
2017-07-04T00:34:17.526Z,0
2017-07-04T00:34:37.853Z,0
2017-07-04T00:34:58.130Z,0
2017-07-04T00:35:18.439Z,0
2017-07-04T00:35:39.468Z,0
2017-07-04T00:35:59.791Z,0
2017-07-04T00:36:20.102Z,0
2017-07-04T00:36:40.390Z,0
2017-07-04T00:37:02.123Z,0
2017-07-04T00:37:22.499Z,0
2017-07-04T00:37:42.772Z,0
2017-07-04T00:38:04.109Z,0
2017-07-04T00:38:25.112Z,0
2017-07-04T00:38:46.091Z,0
2017-07-04T00:39:06.395Z,0
2017-07-04T00:39:26.725Z,0
2017-07-04T00:39:46.993Z,0
2017-07-04T00:40:09.123Z,0
2017-07-04T00:40:29.549Z,0
2017-07-04T00:40:49.828Z,0
2017-07-04T00:41:10.236Z,0
2017-07-04T00:41:30.510Z,0
2017-07-04T00:41:50.813Z,0
2017-07-04T00:42:11.206Z,0
2017-07-04T00:42:32.119Z,0
2017-07-04T00:42:52.436Z,0
2017-07-04T00:43:12.487Z,0
2017-07-04T00:43:32.811Z,0
2017-07-04T00:43:53.299Z,0
2017-07-04T00:44:13.556Z,0
2017-07-04T00:44:34.561Z,0
2017-07-04T00:44:55.650Z,0
2017-07-04T00:45:15.716Z,0
2017-07-04T00:45:37.972Z,0
2017-07-04T00:45:58.282Z,0
2017-07-04T00:46:18.555Z,0
2017-07-04T00:46:39.559Z,0
2017-07-04T00:46:59.835Z,0
2017-07-04T00:47:21.118Z,0
2017-07-04T00:47:41.466Z,0
2017-07-04T00:48:01.783Z,0
2017-07-04T00:48:22.148Z,0
2017-07-04T00:48:42.393Z,0
2017-07-04T00:49:02.655Z,0
2017-07-04T00:49:23.025Z,0
2017-07-04T00:49:43.012Z,0
2017-07-04T00:50:03.331Z,0
2017-07-04T00:50:23.612Z,0
2017-07-04T00:50:44.570Z,0
2017-07-04T00:51:04.957Z,0
2017-07-04T00:51:26.022Z,0
2017-07-04T00:51:47.187Z,0
2017-07-04T00:52:07.519Z,0
2017-07-04T00:52:27.831Z,0
2017-07-04T00:52:48.106Z,0
2017-07-04T00:53:08.763Z,0
2017-07-04T00:53:29.611Z,0
2017-07-04T00:53:49.971Z,0
2017-07-04T00:54:10.369Z,0
2017-07-04T00:54:30.705Z,0
2017-07-04T00:54:51.005Z,0
2017-07-04T00:55:11.281Z,0
2017-07-04T00:55:31.639Z,0
2017-07-04T00:55:51.942Z,0
2017-07-04T00:56:12.720Z,0
2017-07-04T00:56:32.997Z,0
2017-07-04T00:56:53.256Z,0
2017-07-04T00:57:13.661Z,0
2017-07-04T00:57:33.930Z,0
2017-07-04T00:57:54.238Z,0
2017-07-04T00:58:14.584Z,0
2017-07-04T00:58:35.639Z,0
2017-07-04T00:58:55.954Z,0
2017-07-04T00:59:17.154Z,0
2017-07-04T00:59:37.430Z,0
2017-07-04T00:59:57.695Z,0
2017-07-04T01:00:18.609Z,0
2017-07-04T01:00:39.635Z,0
2017-07-04T01:00:59.920Z,0
2017-07-04T01:01:21.620Z,0
2017-07-04T01:01:42.584Z,0
2017-07-04T01:02:02.845Z,0
2017-07-04T01:02:24.149Z,0
2017-07-04T01:02:44.497Z,0
2017-07-04T01:03:04.809Z,0
2017-07-04T01:03:25.123Z,0
2017-07-04T01:03:45.394Z,0
2017-07-04T01:04:05.706Z,0
2017-07-04T01:04:25.972Z,0
2017-07-04T01:04:46.293Z,0
2017-07-04T01:05:06.625Z,0
2017-07-04T01:05:27.613Z,0
2017-07-04T01:05:47.941Z,0
2017-07-04T01:06:08.346Z,0
2017-07-04T01:06:48.276Z,0
2017-07-04T01:07:08.464Z,0
2017-07-04T01:07:29.648Z,0
2017-07-04T01:07:50.677Z,0
2017-07-04T01:08:11.053Z,0
2017-07-04T01:08:32.109Z,0
2017-07-04T01:08:52.472Z,0
2017-07-04T01:09:13.643Z,0
2017-07-04T01:09:34.680Z,0
2017-07-04T01:09:55.674Z,0
2017-07-04T01:10:16.509Z,0
2017-07-04T01:10:37.629Z,0
2017-07-04T01:10:57.973Z,0
2017-07-04T01:11:18.438Z,0
2017-07-04T01:11:38.901Z,0
2017-07-04T01:11:59.363Z,0
2017-07-04T01:12:21.649Z,0
2017-07-04T01:12:43.096Z,0
2017-07-04T01:13:03.582Z,0
2017-07-04T01:13:23.900Z,0
2017-07-04T01:13:44.212Z,0
2017-07-04T01:14:05.152Z,0
2017-07-04T01:14:25.601Z,0
2017-07-04T01:14:45.914Z,0
2017-07-04T01:15:06.289Z,0
2017-07-04T01:15:27.136Z,0
2017-07-04T01:15:47.516Z,0
2017-07-04T01:16:08.024Z,0
2017-07-04T01:16:29.066Z,0
2017-07-04T01:16:50.621Z,0
2017-07-04T01:17:10.928Z,0
2017-07-04T01:17:32.185Z,0
2017-07-04T01:17:53.156Z,0
2017-07-04T01:18:13.781Z,0
2017-07-04T01:18:34.095Z,0
2017-07-04T01:18:54.470Z,0
2017-07-04T01:19:14.793Z,0
2017-07-04T01:19:35.076Z,0
2017-07-04T01:19:55.396Z,0
2017-07-04T01:20:15.681Z,0
2017-07-04T01:20:36.022Z,0
2017-07-04T01:20:56.434Z,0
2017-07-04T01:21:17.697Z,0
2017-07-04T01:21:38.047Z,0
2017-07-04T01:21:58.410Z,0
2017-07-04T01:22:19.608Z,0
2017-07-04T01:22:40.681Z,0
2017-07-04T01:23:01.056Z,0
2017-07-04T01:23:21.375Z,0
2017-07-04T01:23:41.628Z,0
2017-07-04T01:24:01.922Z,0
2017-07-04T01:24:24.158Z,0
2017-07-04T01:24:45.158Z,0
2017-07-04T01:25:05.634Z,0
2017-07-04T01:25:26.035Z,0
2017-07-04T01:25:46.364Z,0
2017-07-04T01:26:06.718Z,0
2017-07-04T01:26:27.642Z,0
2017-07-04T01:26:48.606Z,0
2017-07-04T01:27:08.678Z,0
2017-07-04T01:27:29.651Z,0
2017-07-04T01:27:50.040Z,0
2017-07-04T01:28:10.360Z,0
2017-07-04T01:28:31.656Z,0
2017-07-04T01:28:52.646Z,0
2017-07-04T01:29:12.691Z,0
2017-07-04T01:29:33.080Z,0
2017-07-04T01:29:53.503Z,0
2017-07-04T01:30:13.846Z,0
2017-07-04T01:30:34.196Z,0
2017-07-04T01:30:54.214Z,0
2017-07-04T01:31:14.604Z,0
2017-07-04T01:31:34.968Z,0
2017-07-04T01:31:56.150Z,0
2017-07-04T01:32:16.458Z,0
2017-07-04T01:32:36.832Z,0
2017-07-04T01:32:58.158Z,0
2017-07-04T01:33:18.491Z,0
2017-07-04T01:33:38.840Z,0
2017-07-04T01:33:59.123Z,0
2017-07-04T01:34:20.583Z,0
2017-07-04T01:34:41.666Z,0
2017-07-04T01:35:02.701Z,0
2017-07-04T01:35:23.157Z,0
2017-07-04T01:35:43.204Z,0
2017-07-04T01:36:03.507Z,0
2017-07-04T01:36:23.831Z,0
2017-07-04T01:36:44.107Z,0
2017-07-04T01:37:04.372Z,0
2017-07-04T01:37:24.747Z,0
2017-07-04T01:37:45.751Z,0
2017-07-04T01:38:06.157Z,0
2017-07-04T01:38:26.451Z,0
2017-07-04T01:38:46.722Z,0
2017-07-04T01:39:07.074Z,0
2017-07-04T01:39:27.383Z,0
2017-07-04T01:39:49.106Z,0
2017-07-04T01:40:09.403Z,0
2017-07-04T01:40:29.712Z,0
2017-07-04T01:40:50.081Z,0
2017-07-04T01:41:10.357Z,0
2017-07-04T01:41:30.796Z,0
2017-07-04T01:41:51.103Z,0
2017-07-04T01:42:11.370Z,0
2017-07-04T01:42:31.676Z,0
2017-07-04T01:42:51.957Z,0
2017-07-04T01:43:12.268Z,0
2017-07-04T01:43:32.322Z,0
2017-07-04T01:43:52.574Z,0
2017-07-04T01:44:13.660Z,0
2017-07-04T01:44:33.984Z,0
2017-07-04T01:44:54.330Z,0
2017-07-04T01:45:15.571Z,0
2017-07-04T01:45:36.673Z,0
2017-07-04T01:45:56.946Z,0
2017-07-04T01:46:17.303Z,0
2017-07-04T01:46:38.673Z,0
2017-07-04T01:46:59.111Z,0
2017-07-04T01:47:19.466Z,0
2017-07-04T01:47:39.793Z,0
2017-07-04T01:48:00.123Z,0
2017-07-04T01:48:20.468Z,0
2017-07-04T01:48:40.459Z,0
2017-07-04T01:49:00.767Z,0
2017-07-04T01:49:21.679Z,0
2017-07-04T01:49:41.966Z,0
2017-07-04T01:50:03.299Z,0
2017-07-04T01:50:24.200Z,0
2017-07-04T01:50:44.625Z,0
2017-07-04T01:51:04.898Z,0
2017-07-04T01:51:25.341Z,0
2017-07-04T01:51:45.688Z,0
2017-07-04T01:52:06.649Z,0
2017-07-04T01:52:26.734Z,0
2017-07-04T01:52:47.099Z,0
2017-07-04T01:53:07.381Z,0
2017-07-04T01:53:27.689Z,0
2017-07-04T01:53:48.012Z,0
2017-07-04T01:54:09.766Z,0
2017-07-04T01:54:30.207Z,0
2017-07-04T01:54:51.188Z,0
2017-07-04T01:55:12.177Z,0
2017-07-04T01:55:32.525Z,0
2017-07-04T01:55:54.180Z,0
2017-07-04T01:56:15.162Z,0
2017-07-04T01:56:35.539Z,0
2017-07-04T01:56:55.989Z,0
2017-07-04T01:57:17.111Z,0
2017-07-04T01:57:37.767Z,0
2017-07-04T01:57:58.350Z,0
2017-07-04T01:58:18.829Z,0
2017-07-04T01:58:40.691Z,0
2017-07-04T01:59:01.099Z,0
2017-07-04T01:59:22.187Z,0
2017-07-04T01:59:42.513Z,0
2017-07-04T02:00:02.885Z,0
2017-07-04T02:00:23.245Z,0
2017-07-04T02:00:44.614Z,0
2017-07-04T02:01:04.975Z,0
2017-07-04T02:01:27.029Z,0
2017-07-04T02:01:47.400Z,0
2017-07-04T02:02:07.674Z,0
2017-07-04T02:02:27.993Z,0
2017-07-04T02:02:48.350Z,0
2017-07-04T02:03:09.515Z,0
2017-07-04T02:03:29.843Z,0
2017-07-04T02:03:50.172Z,0
2017-07-04T02:04:10.439Z,0
2017-07-04T02:04:30.706Z,0
2017-07-04T02:04:51.092Z,0
2017-07-04T02:05:12.625Z,0
2017-07-04T02:05:32.941Z,0
2017-07-04T02:05:53.272Z,0
2017-07-04T02:06:13.585Z,0
2017-07-04T02:06:33.905Z,0
2017-07-04T02:06:54.187Z,0
2017-07-04T02:07:14.451Z,0
2017-07-04T02:07:34.826Z,0
2017-07-04T02:07:54.838Z,0
2017-07-04T02:08:15.193Z,0
2017-07-04T02:08:36.220Z,0
2017-07-04T02:08:56.241Z,0
2017-07-04T02:09:16.602Z,0
2017-07-04T02:09:36.928Z,0
2017-07-04T02:09:57.193Z,0
2017-07-04T02:10:18.774Z,0
2017-07-04T02:10:39.081Z,0
2017-07-04T02:10:59.354Z,0
2017-07-04T02:11:19.667Z,0
2017-07-04T02:11:40.055Z,0
2017-07-04T02:12:00.339Z,0
2017-07-04T02:12:20.690Z,0
2017-07-04T02:12:40.993Z,0
2017-07-04T02:13:01.296Z,0
2017-07-04T02:13:21.557Z,0
2017-07-04T02:13:41.977Z,0
2017-07-04T02:14:02.334Z,0
2017-07-04T02:14:22.610Z,0
2017-07-04T02:14:42.889Z,0
2017-07-04T02:15:03.150Z,0
2017-07-04T02:15:23.463Z,0
2017-07-04T02:15:43.811Z,0
2017-07-04T02:16:04.200Z,0
2017-07-04T02:16:24.524Z,0
2017-07-04T02:16:44.950Z,0
2017-07-04T02:17:07.172Z,0
2017-07-04T02:17:27.520Z,0
2017-07-04T02:17:47.869Z,0
2017-07-04T02:18:08.177Z,0
2017-07-04T02:18:28.480Z,0
2017-07-04T02:18:48.822Z,0
2017-07-04T02:19:09.155Z,0
2017-07-04T02:19:29.427Z,0
2017-07-04T02:19:49.738Z,0
2017-07-04T02:20:10.060Z,0
2017-07-04T02:20:30.370Z,0
2017-07-04T02:20:51.629Z,0
2017-07-04T02:21:11.936Z,0
2017-07-04T02:21:32.252Z,0
2017-07-04T02:21:52.687Z,0
2017-07-04T02:22:12.989Z,0
2017-07-04T02:22:34.658Z,0
2017-07-04T02:22:55.686Z,0
2017-07-04T02:23:16.038Z,0
2017-07-04T02:23:37.190Z,0
2017-07-04T02:23:57.504Z,0
2017-07-04T02:24:17.214Z,0
2017-07-04T02:24:37.565Z,0
2017-07-04T02:24:57.828Z,0
2017-07-04T02:25:18.097Z,0
2017-07-04T02:25:38.460Z,0
2017-07-04T02:25:59.672Z,0
2017-07-04T02:26:22.087Z,0
2017-07-04T02:26:42.527Z,0
2017-07-04T02:27:02.789Z,0
2017-07-04T02:27:23.095Z,0
2017-07-04T02:27:43.429Z,0
2017-07-04T02:28:03.704Z,4
2017-07-04T02:28:24.048Z,4
2017-07-04T02:28:44.362Z,4
2017-07-04T02:29:04.630Z,4
2017-07-04T02:29:25.015Z,4
2017-07-04T02:29:45.318Z,0
2017-07-04T02:30:06.203Z,0
2017-07-04T02:30:26.615Z,0
2017-07-04T02:30:46.887Z,4
2017-07-04T02:31:07.291Z,4
2017-07-04T02:31:27.613Z,4
2017-07-04T02:31:47.934Z,4
2017-07-04T02:32:08.252Z,4
2017-07-04T02:32:28.510Z,4
2017-07-04T02:32:48.784Z,4
2017-07-04T02:33:09.064Z,4
2017-07-04T02:33:30.182Z,4
2017-07-04T02:33:50.519Z,4
2017-07-04T02:34:10.877Z,4
2017-07-04T02:34:31.202Z,8
2017-07-04T02:34:51.477Z,8
2017-07-04T02:35:12.548Z,8
2017-07-04T02:35:32.856Z,4
2017-07-04T02:35:53.258Z,4
2017-07-04T02:36:13.636Z,8
2017-07-04T02:36:33.713Z,8
2017-07-04T02:36:54.281Z,8
2017-07-04T02:37:14.636Z,4
2017-07-04T02:37:35.030Z,8
2017-07-04T02:37:55.344Z,8
2017-07-04T02:38:16.178Z,8
2017-07-04T02:38:36.490Z,8
2017-07-04T02:38:56.758Z,8
2017-07-04T02:39:17.081Z,12
2017-07-04T02:39:38.210Z,12
2017-07-04T02:39:58.536Z,8
2017-07-04T02:40:18.845Z,12
2017-07-04T02:40:39.153Z,12
2017-07-04T02:40:59.466Z,16
2017-07-04T02:41:20.628Z,12
2017-07-04T02:41:40.950Z,12
2017-07-04T02:42:01.271Z,16
2017-07-04T02:42:21.675Z,12
2017-07-04T02:42:41.951Z,16
2017-07-04T02:43:02.299Z,16
2017-07-04T02:43:22.613Z,16
2017-07-04T02:43:43.036Z,16
2017-07-04T02:44:03.305Z,16
2017-07-04T02:44:23.637Z,20
2017-07-04T02:44:44.704Z,16
2017-07-04T02:45:05.031Z,16
2017-07-04T02:45:25.312Z,20
2017-07-04T02:45:45.633Z,20
2017-07-04T02:46:05.942Z,20
2017-07-04T02:46:26.224Z,16
2017-07-04T02:46:46.639Z,16
2017-07-04T02:47:06.998Z,20
2017-07-04T02:47:27.267Z,16
2017-07-04T02:47:47.580Z,16
2017-07-04T02:48:07.885Z,16
2017-07-04T02:48:28.202Z,16
2017-07-04T02:48:48.518Z,16
2017-07-04T02:49:08.801Z,12
2017-07-04T02:49:29.121Z,12
2017-07-04T02:49:49.407Z,12
2017-07-04T02:50:10.715Z,12
2017-07-04T02:50:31.036Z,12
2017-07-04T02:50:52.151Z,12
2017-07-04T02:51:12.583Z,16
2017-07-04T02:51:32.912Z,16
2017-07-04T02:51:53.170Z,16
2017-07-04T02:52:13.495Z,16
2017-07-04T02:52:33.789Z,16
2017-07-04T02:52:55.156Z,16
2017-07-04T02:53:15.481Z,16
2017-07-04T02:53:35.761Z,16
2017-07-04T02:53:56.185Z,16
2017-07-04T02:54:17.105Z,20
2017-07-04T02:54:37.379Z,20
2017-07-04T02:54:57.738Z,16
2017-07-04T02:55:18.037Z,20
2017-07-04T02:55:38.348Z,20
2017-07-04T02:55:59.221Z,20
2017-07-04T02:56:19.547Z,20
2017-07-04T02:56:39.913Z,20
2017-07-04T02:57:00.240Z,24
2017-07-04T02:57:20.510Z,28
2017-07-04T02:57:40.766Z,28
2017-07-04T02:58:01.131Z,32
2017-07-04T02:58:21.439Z,36
2017-07-04T02:58:41.813Z,40
2017-07-04T02:59:02.085Z,40
2017-07-04T02:59:22.354Z,40
2017-07-04T02:59:42.635Z,44
2017-07-04T03:00:02.917Z,44
2017-07-04T03:00:24.231Z,44
2017-07-04T03:00:44.610Z,44
2017-07-04T03:01:04.665Z,44
2017-07-04T03:01:24.978Z,44
2017-07-04T03:01:45.396Z,44
2017-07-04T03:02:06.706Z,44
2017-07-04T03:02:27.063Z,44
2017-07-04T03:02:47.374Z,44
2017-07-04T03:03:07.735Z,44
2017-07-04T03:03:28.014Z,48
2017-07-04T03:03:49.199Z,48
2017-07-04T03:04:09.469Z,52
2017-07-04T03:04:29.779Z,56
2017-07-04T03:04:50.046Z,60
2017-07-04T03:05:10.349Z,60
2017-07-04T03:05:30.438Z,64
2017-07-04T03:05:50.757Z,64
2017-07-04T03:06:11.029Z,64
2017-07-04T03:06:31.329Z,64
2017-07-04T03:06:52.198Z,64
2017-07-04T03:07:13.167Z,64
2017-07-04T03:07:33.578Z,60
2017-07-04T03:07:53.949Z,56
2017-07-04T03:08:15.209Z,52
2017-07-04T03:08:35.533Z,56
2017-07-04T03:08:55.568Z,52
2017-07-04T03:09:16.758Z,52
2017-07-04T03:09:37.074Z,52
2017-07-04T03:09:57.471Z,48
2017-07-04T03:10:17.833Z,52
2017-07-04T03:10:38.096Z,48
2017-07-04T03:10:58.068Z,48
2017-07-04T03:11:19.712Z,48
2017-07-04T03:11:39.993Z,48
2017-07-04T03:12:00.305Z,48
2017-07-04T03:12:20.642Z,48
2017-07-04T03:12:40.920Z,48
2017-07-04T03:13:01.285Z,52
2017-07-04T03:13:21.550Z,48
2017-07-04T03:13:41.854Z,48
2017-07-04T03:14:02.204Z,48
2017-07-04T03:14:22.573Z,48
2017-07-04T03:14:42.926Z,52
2017-07-04T03:15:03.250Z,48
2017-07-04T03:15:24.289Z,48
2017-07-04T03:15:45.170Z,48
2017-07-04T03:16:05.531Z,48
2017-07-04T03:16:25.839Z,52
2017-07-04T03:16:47.715Z,52
2017-07-04T03:17:08.070Z,48
2017-07-04T03:17:28.374Z,52
2017-07-04T03:17:50.738Z,52
2017-07-04T03:18:11.375Z,52
2017-07-04T03:18:31.890Z,48
2017-07-04T03:18:52.598Z,52
2017-07-04T03:19:12.914Z,48
2017-07-04T03:19:34.220Z,52
2017-07-04T03:19:54.528Z,52
2017-07-04T03:20:14.910Z,56
2017-07-04T03:20:35.267Z,52
2017-07-04T03:20:56.203Z,60
2017-07-04T03:21:16.479Z,64
2017-07-04T03:21:37.712Z,64
2017-07-04T03:21:58.723Z,68
2017-07-04T03:22:19.119Z,68
2017-07-04T03:22:39.514Z,76
2017-07-04T03:22:59.862Z,80
2017-07-04T03:23:20.744Z,80
2017-07-04T03:23:41.081Z,84
2017-07-04T03:24:01.431Z,84
2017-07-04T03:24:21.726Z,92
2017-07-04T03:24:42.522Z,92
2017-07-04T03:25:02.829Z,96
2017-07-04T03:25:23.145Z,100
2017-07-04T03:25:43.455Z,108
2017-07-04T03:26:03.808Z,108
2017-07-04T03:26:24.147Z,116
2017-07-04T03:26:44.567Z,120
2017-07-04T03:27:05.352Z,128
2017-07-04T03:27:25.674Z,136
2017-07-04T03:27:45.998Z,148
2017-07-04T03:28:06.363Z,156
2017-07-04T03:28:26.619Z,160
2017-07-04T03:28:47.746Z,160
2017-07-04T03:29:09.744Z,164
2017-07-04T03:29:30.378Z,160
2017-07-04T03:29:50.644Z,160
2017-07-04T03:30:10.959Z,156
2017-07-04T03:30:31.302Z,148
2017-07-04T03:30:51.702Z,144
2017-07-04T03:31:12.087Z,136
2017-07-04T03:31:32.412Z,132
2017-07-04T03:31:54.248Z,132
2017-07-04T03:32:15.226Z,128
2017-07-04T03:32:35.548Z,124
2017-07-04T03:32:55.820Z,120
2017-07-04T03:33:18.239Z,120
2017-07-04T03:33:38.540Z,116
2017-07-04T03:33:59.762Z,120
2017-07-04T03:34:20.072Z,120
2017-07-04T03:34:41.251Z,116
2017-07-04T03:35:01.617Z,120
2017-07-04T03:35:22.016Z,120
2017-07-04T03:35:42.343Z,120
2017-07-04T03:36:02.428Z,120
2017-07-04T03:36:23.752Z,116
2017-07-04T03:36:44.114Z,116
2017-07-04T03:37:05.247Z,116
2017-07-04T03:37:25.521Z,116
2017-07-04T03:37:47.281Z,116
2017-07-04T03:38:08.222Z,116
2017-07-04T03:38:28.540Z,112
2017-07-04T03:38:48.823Z,116
2017-07-04T03:39:09.745Z,112
2017-07-04T03:39:30.838Z,116
2017-07-04T03:39:51.196Z,120
2017-07-04T03:40:13.254Z,124
2017-07-04T03:40:33.563Z,128
2017-07-04T03:40:53.949Z,132
2017-07-04T03:41:14.297Z,136
2017-07-04T03:41:34.842Z,144
2017-07-04T03:41:55.109Z,144
2017-07-04T03:42:15.418Z,148
2017-07-04T03:42:36.649Z,152
2017-07-04T03:42:56.910Z,148
2017-07-04T03:43:18.112Z,148
2017-07-04T03:43:38.501Z,148
2017-07-04T03:43:58.822Z,148
2017-07-04T03:44:19.736Z,144
2017-07-04T03:44:40.644Z,144
2017-07-04T03:45:01.415Z,140
2017-07-04T03:45:22.240Z,144
2017-07-04T03:45:43.193Z,148
2017-07-04T03:46:03.544Z,148
2017-07-04T03:46:24.668Z,152
2017-07-04T03:46:45.646Z,152
2017-07-04T03:47:06.652Z,152
2017-07-04T03:47:26.920Z,152
2017-07-04T03:47:48.239Z,156
2017-07-04T03:48:09.729Z,156
2017-07-04T03:48:30.046Z,156
2017-07-04T03:48:50.408Z,160
2017-07-04T03:49:10.771Z,160
2017-07-04T03:49:31.790Z,164
2017-07-04T03:49:52.638Z,168
2017-07-04T03:50:12.957Z,168
2017-07-04T03:50:34.251Z,172
2017-07-04T03:50:54.639Z,176
2017-07-04T03:51:15.707Z,176
2017-07-04T03:51:36.765Z,176
2017-07-04T03:51:57.172Z,172
2017-07-04T03:52:17.563Z,172
2017-07-04T03:52:38.751Z,164
2017-07-04T03:52:59.064Z,160
2017-07-04T03:53:20.282Z,152
2017-07-04T03:53:40.566Z,148
2017-07-04T03:54:00.856Z,140
2017-07-04T03:54:21.169Z,132
2017-07-04T03:54:42.275Z,132
2017-07-04T03:55:03.258Z,124
2017-07-04T03:55:23.535Z,128
2017-07-04T03:55:43.847Z,128
2017-07-04T03:56:04.745Z,136
2017-07-04T03:56:25.779Z,148
2017-07-04T03:56:46.890Z,164
2017-07-04T03:57:07.206Z,180
2017-07-04T03:57:27.473Z,200
2017-07-04T03:57:48.771Z,216
2017-07-04T03:58:09.132Z,220
2017-07-04T03:58:29.438Z,220
2017-07-04T03:58:49.699Z,216
2017-07-04T03:59:11.151Z,208
2017-07-04T03:59:31.507Z,200
2017-07-04T03:59:51.779Z,184
2017-07-04T04:00:12.611Z,176
2017-07-04T04:00:32.971Z,164
2017-07-04T04:00:54.184Z,152
2017-07-04T04:01:15.748Z,144
2017-07-04T04:01:36.096Z,136
2017-07-04T04:01:56.422Z,128
2017-07-04T04:02:16.689Z,120
2017-07-04T04:02:36.970Z,120
2017-07-04T04:02:57.241Z,120
2017-07-04T04:03:17.637Z,120
2017-07-04T04:03:37.999Z,112
2017-07-04T04:03:58.065Z,116
2017-07-04T04:04:19.307Z,116
2017-07-04T04:04:39.615Z,120
2017-07-04T04:05:00.391Z,128
2017-07-04T04:05:20.463Z,140
2017-07-04T04:05:40.779Z,148
2017-07-04T04:06:01.164Z,160
2017-07-04T04:06:21.484Z,172
2017-07-04T04:06:42.269Z,180
2017-07-04T04:07:02.600Z,184
2017-07-04T04:07:23.750Z,192
2017-07-04T04:07:44.139Z,188
2017-07-04T04:08:05.227Z,188
2017-07-04T04:08:25.543Z,180
2017-07-04T04:08:46.784Z,180
2017-07-04T04:09:07.095Z,176
2017-07-04T04:09:28.284Z,180
2017-07-04T04:09:49.274Z,184
2017-07-04T04:10:09.627Z,196
2017-07-04T04:10:31.216Z,216
2017-07-04T04:10:52.198Z,240
2017-07-04T04:11:12.513Z,276
2017-07-04T04:11:33.736Z,308
2017-07-04T04:11:54.010Z,336
2017-07-04T04:12:14.372Z,364
2017-07-04T04:12:35.270Z,388
2017-07-04T04:12:55.541Z,408
2017-07-04T04:13:15.812Z,416
2017-07-04T04:13:36.745Z,420
2017-07-04T04:13:57.081Z,424
2017-07-04T04:14:17.399Z,424
2017-07-04T04:14:37.705Z,428
2017-07-04T04:14:57.988Z,432
2017-07-04T04:15:18.305Z,436
2017-07-04T04:15:38.588Z,436
2017-07-04T04:15:58.881Z,432
2017-07-04T04:16:19.217Z,428
2017-07-04T04:16:39.575Z,428
2017-07-04T04:17:01.376Z,432
2017-07-04T04:17:21.654Z,428
2017-07-04T04:17:41.993Z,432
2017-07-04T04:18:02.271Z,432
2017-07-04T04:18:22.598Z,436
2017-07-04T04:18:42.909Z,432
2017-07-04T04:19:03.297Z,436
2017-07-04T04:19:23.616Z,440
2017-07-04T04:19:43.889Z,444
2017-07-04T04:20:04.905Z,448
2017-07-04T04:20:25.224Z,460
2017-07-04T04:20:45.548Z,476
2017-07-04T04:21:05.856Z,492
2017-07-04T04:21:26.810Z,500
2017-07-04T04:21:47.108Z,504
2017-07-04T04:22:08.333Z,508
2017-07-04T04:22:28.604Z,516
2017-07-04T04:22:49.451Z,528
2017-07-04T04:23:09.773Z,544
2017-07-04T04:23:30.185Z,572
2017-07-04T04:23:50.556Z,600
2017-07-04T04:24:10.840Z,616
2017-07-04T04:24:31.133Z,640
2017-07-04T04:24:51.413Z,660
2017-07-04T04:25:11.754Z,672
2017-07-04T04:25:32.886Z,680
2017-07-04T04:25:53.835Z,676
2017-07-04T04:26:14.193Z,668
2017-07-04T04:26:35.381Z,668
2017-07-04T04:26:56.365Z,680
2017-07-04T04:27:16.721Z,700
2017-07-04T04:27:37.073Z,732
2017-07-04T04:27:57.857Z,772
2017-07-04T04:28:18.193Z,824
2017-07-04T04:28:38.475Z,872
2017-07-04T04:28:59.388Z,928
2017-07-04T04:29:19.764Z,980
2017-07-04T04:29:40.882Z,1024
2017-07-04T04:30:01.869Z,1056
2017-07-04T04:30:22.146Z,1072
2017-07-04T04:30:42.462Z,1072
2017-07-04T04:31:02.780Z,1052
2017-07-04T04:31:23.890Z,1012
2017-07-04T04:31:44.163Z,948
2017-07-04T04:32:04.576Z,888
2017-07-04T04:32:24.931Z,816
2017-07-04T04:32:45.895Z,752
2017-07-04T04:33:06.874Z,704
2017-07-04T04:33:27.224Z,676
2017-07-04T04:33:47.635Z,668
2017-07-04T04:34:07.912Z,672
2017-07-04T04:34:28.276Z,688
2017-07-04T04:34:48.602Z,708
2017-07-04T04:35:09.873Z,736
2017-07-04T04:35:30.870Z,764
2017-07-04T04:35:51.224Z,796
2017-07-04T04:36:11.537Z,832
2017-07-04T04:36:31.852Z,868
2017-07-04T04:36:52.171Z,908
2017-07-04T04:37:12.491Z,940
2017-07-04T04:37:32.857Z,964
2017-07-04T04:37:53.171Z,976
2017-07-04T04:38:13.486Z,980
2017-07-04T04:38:33.809Z,972
2017-07-04T04:38:54.832Z,980
2017-07-04T04:39:15.112Z,988
2017-07-04T04:39:35.230Z,1004
2017-07-04T04:39:56.896Z,1016
2017-07-04T04:40:17.291Z,1008
2017-07-04T04:40:37.566Z,988
2017-07-04T04:40:57.925Z,964
2017-07-04T04:41:18.844Z,932
2017-07-04T04:41:39.210Z,916
2017-07-04T04:41:59.594Z,908
2017-07-04T04:42:19.894Z,908
2017-07-04T04:42:40.203Z,924
2017-07-04T04:43:00.532Z,932
2017-07-04T04:43:20.890Z,944
2017-07-04T04:43:41.247Z,956
2017-07-04T04:44:01.544Z,980
2017-07-04T04:44:22.822Z,996
2017-07-04T04:44:43.142Z,1012
2017-07-04T04:45:03.458Z,1040
2017-07-04T04:45:23.746Z,1060
2017-07-04T04:45:44.004Z,1120
2017-07-04T04:46:04.280Z,1172
2017-07-04T04:46:24.595Z,1204
2017-07-04T04:46:44.907Z,1276
2017-07-04T04:47:05.180Z,1368
2017-07-04T04:47:25.461Z,1456
2017-07-04T04:47:45.840Z,1560
2017-07-04T04:48:06.901Z,1628
2017-07-04T04:48:27.907Z,1656
2017-07-04T04:48:48.176Z,1712
2017-07-04T04:49:08.443Z,1764
2017-07-04T04:49:28.716Z,1844
2017-07-04T04:49:49.836Z,1900
2017-07-04T04:50:12.070Z,1884
2017-07-04T04:50:32.446Z,1824
2017-07-04T04:50:52.781Z,1748
2017-07-04T04:51:13.802Z,1708
2017-07-04T04:51:34.896Z,1712
2017-07-04T04:51:55.903Z,1740
2017-07-04T04:52:16.281Z,1768
2017-07-04T04:52:36.604Z,1744
2017-07-04T04:52:56.903Z,1700
2017-07-04T04:53:17.232Z,1612
2017-07-04T04:53:37.571Z,1544
2017-07-04T04:53:57.880Z,1520
2017-07-04T04:54:18.155Z,1504
2017-07-04T04:54:38.445Z,1492
2017-07-04T04:54:59.324Z,1464
2017-07-04T04:55:19.330Z,1408
2017-07-04T04:55:39.639Z,1356